Montalto di Castro, Italy

2:15 AM CEST on June 29, 2017 (GMT +0200)
Liquido Kite Meteo Live | | Change Station

Elev 0 ft 42.33 °N, 11.58 °E | Updated 40 seconds ago

Partly Cloudy
Partly Cloudy
74.5 °F
Feels Like 75 °F
N
26.6
Wind Variable Wind from WSW
Gusts 32.2 mph

Today
High -- | Low -- °F
--% Chance of Precip.
Yesterday
High -- | Low -- °F
Precip. -- in
Pressure 29.59 in
Visibility 5.0 miles
Clouds Few 2000 ft
Heat Index 75 °F
Dew Point 67 °F
Humidity 77%
Rainfall 0.00 in
Snow Depth Not available.
5:39 AM 8:54 PM
Waxing Crescent, 30% visible
METAR LIRS 282355Z 16005KT 8000 FEW020 22/16 Q1002 RETS RMK SCT SCT070 VIS MIN 8000 WIND THR03 18006KT WIND THR21 18005KT BLU
Pressure 29.59 in
Visibility 5.0 miles
Clouds Few 2000 ft
Heat Index 75 °F
Dew Point 67 °F
Humidity 77%
Rainfall 0.00 in
Snow Depth Not available.
5:39 AM 8:54 PM
Waxing Crescent, 30% visible
METAR LIRS 282355Z 16005KT 8000 FEW020 22/16 Q1002 RETS RMK SCT SCT070 VIS MIN 8000 WIND THR03 18006KT WIND THR21 18005KT BLU

Get Severe Weather Alerts

Thanks for signing up!

Be on the lookout for a verification email in your inbox.

You'll start receiving the daily forecast at 6 AM.

×

10-Day Weather Forecast

×

Almanac

Astronomy

Jun. 29, 2017 Rise Set
Actual Time
Civil Twilight
Nautical Twilight
Astronomical Twilight
Moon
Length of Visible Light
Length of Day
Tomorrow will be .
, % of the Moon is Illuminated

Today's Extremes

Country Highs Country Lows

Community

WunderPhotos

Category 6

Welcome to Category 6. This is the collective home for Weather Underground's featured writeups by Dr. Jeff Masters (right), Bob Henson (left), Chris Burt, and other regular contributors.

Nearby

Air Quality

  Air Quality AQ Index Pollutant
Not available.

Snow Depth

Station Depth Elevation

Earthquake Activity

City Distance Mag. Time & Date
Minimum magnitude displayed is 2.5.

Coastal Water Temperatures

Place Temperature

Stations

Nearby Weather Stations

Station Location Temp. Windchill Dew Point Humidity Wind Precip. Elev Updated Type